createdAt,value
2023-01-30T00:01:02.779Z,0
2023-01-30T00:01:59.974Z,0
2023-01-30T00:02:59.670Z,0
2023-01-30T00:03:59.692Z,0
2023-01-30T00:04:59.882Z,0
2023-01-30T00:05:59.687Z,0
2023-01-30T00:07:02.767Z,0
2023-01-30T00:07:59.718Z,0
2023-01-30T00:08:59.531Z,0
2023-01-30T00:09:59.685Z,0
2023-01-30T00:10:59.703Z,0
2023-01-30T00:12:02.725Z,0
2023-01-30T00:12:59.724Z,0
2023-01-30T00:13:59.703Z,0
2023-01-30T00:14:59.720Z,0
2023-01-30T00:16:00.871Z,0
2023-01-30T00:16:59.696Z,0
2023-01-30T00:18:02.571Z,0
2023-01-30T00:18:59.726Z,0
2023-01-30T00:19:59.717Z,0
2023-01-30T00:21:00.747Z,0
2023-01-30T00:21:59.833Z,0
2023-01-30T00:23:07.690Z,0
2023-01-30T00:23:59.718Z,0
2023-01-30T00:25:00.395Z,0
2023-01-30T00:26:02.628Z,0
2023-01-30T00:26:59.844Z,0
2023-01-30T00:28:00.268Z,0
2023-01-30T00:29:03.067Z,0
2023-01-30T00:30:09.920Z,0
2023-01-30T00:31:00.060Z,0
2023-01-30T00:31:59.858Z,0
2023-01-30T00:32:59.794Z,0
2023-01-30T00:34:04.399Z,0
2023-01-30T00:34:59.721Z,0
2023-01-30T00:35:59.741Z,0
2023-01-30T00:37:14.385Z,0
2023-01-30T00:37:59.781Z,0
2023-01-30T00:38:59.749Z,0
2023-01-30T00:40:02.780Z,0
2023-01-30T00:41:02.768Z,0
2023-01-30T00:41:59.746Z,0
2023-01-30T00:42:59.762Z,0
2023-01-30T00:43:59.751Z,0
2023-01-30T00:45:03.788Z,0
2023-01-30T00:46:00.080Z,0
2023-01-30T00:46:59.769Z,0
2023-01-30T00:47:59.764Z,0
2023-01-30T00:49:00.803Z,0
2023-01-30T00:49:59.742Z,0
2023-01-30T00:51:03.889Z,0
2023-01-30T00:51:59.749Z,0
2023-01-30T00:52:59.786Z,0
2023-01-30T00:53:59.769Z,0
2023-01-30T00:54:59.599Z,0
2023-01-30T00:56:02.604Z,0
2023-01-30T00:56:59.818Z,0
2023-01-30T00:57:59.805Z,0
2023-01-30T00:58:59.861Z,0
2023-01-30T00:59:59.790Z,0
2023-01-30T01:01:02.739Z,0
2023-01-30T01:01:59.998Z,0
2023-01-30T01:02:59.974Z,0
2023-01-30T01:03:59.818Z,0
2023-01-30T01:04:59.771Z,0
2023-01-30T01:05:59.813Z,0
2023-01-30T01:07:03.063Z,0
2023-01-30T01:07:59.816Z,0
2023-01-30T01:08:59.786Z,0
2023-01-30T01:09:59.776Z,0
2023-01-30T01:10:59.790Z,0
2023-01-30T01:11:59.858Z,0
2023-01-30T01:12:59.808Z,0
2023-01-30T01:13:59.822Z,0
2023-01-30T01:15:00.314Z,0
2023-01-30T01:15:59.894Z,0
2023-01-30T01:16:59.830Z,0
2023-01-30T01:18:02.653Z,0
2023-01-30T01:19:02.537Z,0
2023-01-30T01:19:59.908Z,0
2023-01-30T01:20:59.814Z,0
2023-01-30T01:21:59.794Z,0
2023-01-30T01:22:59.867Z,0
2023-01-30T01:24:00.027Z,0
2023-01-30T01:24:59.860Z,0
2023-01-30T01:25:59.878Z,0
2023-01-30T01:26:59.821Z,0
2023-01-30T01:27:59.838Z,0
2023-01-30T01:29:02.870Z,0
2023-01-30T01:30:01.939Z,0
2023-01-30T01:30:59.887Z,0
2023-01-30T01:32:00.240Z,0
2023-01-30T01:33:02.891Z,0
2023-01-30T01:34:02.612Z,0
2023-01-30T01:35:00.894Z,0
2023-01-30T01:35:59.835Z,0
2023-01-30T01:37:01.495Z,0
2023-01-30T01:37:59.871Z,0
2023-01-30T01:38:59.839Z,0
2023-01-30T01:40:02.671Z,0
2023-01-30T01:40:59.840Z,0
2023-01-30T01:41:59.852Z,0
2023-01-30T01:42:59.883Z,0
2023-01-30T01:43:59.855Z,0
2023-01-30T01:45:03.058Z,0
2023-01-30T01:46:00.231Z,0
2023-01-30T01:46:59.916Z,0
2023-01-30T01:47:59.909Z,0
2023-01-30T01:48:59.846Z,0
2023-01-30T01:49:59.906Z,0
2023-01-30T01:50:59.896Z,0
2023-01-30T01:51:59.915Z,0
2023-01-30T01:52:59.920Z,0
2023-01-30T01:53:59.938Z,0
2023-01-30T01:55:00.896Z,0
2023-01-30T01:56:02.716Z,0
2023-01-30T01:56:59.911Z,0
2023-01-30T01:57:59.869Z,0
2023-01-30T01:58:59.865Z,0
2023-01-30T01:59:59.881Z,0
2023-01-30T02:01:00.000Z,0
2023-01-30T02:02:03.096Z,0
2023-01-30T02:02:59.894Z,0
2023-01-30T02:03:59.889Z,0
2023-01-30T02:04:59.858Z,0
2023-01-30T02:05:59.896Z,0
2023-01-30T02:06:59.877Z,0
2023-01-30T02:07:59.895Z,0
2023-01-30T02:09:00.015Z,0
2023-01-30T02:09:59.939Z,0
2023-01-30T02:10:59.866Z,0
2023-01-30T02:11:59.929Z,0
2023-01-30T02:12:59.891Z,0
2023-01-30T02:13:59.888Z,0
2023-01-30T02:14:59.879Z,0
2023-01-30T02:15:59.874Z,0
2023-01-30T02:16:59.939Z,0
2023-01-30T02:18:00.156Z,0
2023-01-30T02:18:59.897Z,0
2023-01-30T02:20:00.059Z,0
2023-01-30T02:20:59.947Z,0
2023-01-30T02:21:59.919Z,0
2023-01-30T02:23:03.020Z,0
2023-01-30T02:23:59.936Z,0
2023-01-30T02:24:59.935Z,0
2023-01-30T02:26:02.500Z,0
2023-01-30T02:26:59.948Z,0
2023-01-30T02:28:01.438Z,0
2023-01-30T02:28:59.928Z,0
2023-01-30T02:29:59.971Z,0
2023-01-30T02:31:00.439Z,0
2023-01-30T02:31:59.926Z,0
2023-01-30T02:32:59.993Z,0
2023-01-30T02:34:03.075Z,0
2023-01-30T02:34:59.924Z,0
2023-01-30T02:36:00.118Z,0
2023-01-30T02:36:59.918Z,0
2023-01-30T02:37:59.949Z,0
2023-01-30T02:39:02.765Z,0
2023-01-30T02:40:00.127Z,0
2023-01-30T02:40:59.923Z,0
2023-01-30T02:41:59.925Z,0
2023-01-30T02:43:00.095Z,0
2023-01-30T02:43:59.921Z,0
2023-01-30T02:45:02.685Z,0
2023-01-30T02:46:00.063Z,0
2023-01-30T02:46:59.941Z,0
2023-01-30T02:48:00.020Z,0
2023-01-30T02:48:59.961Z,0
2023-01-30T02:50:02.697Z,0
2023-01-30T02:50:59.941Z,0
2023-01-30T02:51:59.965Z,0
2023-01-30T02:52:59.960Z,0
2023-01-30T02:54:00.100Z,0
2023-01-30T02:54:59.998Z,0
2023-01-30T02:56:03.145Z,0
2023-01-30T02:57:00.008Z,0
2023-01-30T02:57:59.985Z,0
2023-01-30T02:58:59.947Z,0
2023-01-30T03:00:00.190Z,0
2023-01-30T03:01:03.040Z,0
2023-01-30T03:01:59.964Z,0
2023-01-30T03:03:00.027Z,0
2023-01-30T03:03:59.968Z,0
2023-01-30T03:04:59.969Z,0
2023-01-30T03:05:59.946Z,0
2023-01-30T03:07:03.125Z,0
2023-01-30T03:08:00.009Z,0
2023-01-30T03:08:59.993Z,0
2023-01-30T03:10:00.356Z,0
2023-01-30T03:11:00.340Z,0
2023-01-30T03:12:03.463Z,0
2023-01-30T03:13:03.523Z,0
2023-01-30T03:14:00.008Z,0
2023-01-30T03:14:59.971Z,0
2023-01-30T03:16:00.250Z,0
2023-01-30T03:17:00.058Z,0
2023-01-30T03:18:00.028Z,0
2023-01-30T03:18:59.982Z,0
2023-01-30T03:19:59.962Z,0
2023-01-30T03:21:00.009Z,0
2023-01-30T03:22:00.008Z,0
2023-01-30T03:23:03.103Z,0
2023-01-30T03:23:59.991Z,0
2023-01-30T03:24:59.981Z,0
2023-01-30T03:25:59.990Z,0
2023-01-30T03:27:01.050Z,0
2023-01-30T03:28:00.167Z,0
2023-01-30T03:30:00.009Z,0
2023-01-30T03:31:00.528Z,0
2023-01-30T03:32:00.279Z,0
2023-01-30T03:33:00.045Z,0
2023-01-30T03:34:02.807Z,0
2023-01-30T03:35:00.130Z,0
2023-01-30T03:36:00.047Z,0
2023-01-30T03:37:00.111Z,0
2023-01-30T03:38:00.000Z,0
2023-01-30T03:39:00.024Z,0
2023-01-30T03:40:00.040Z,0
2023-01-30T03:41:00.038Z,0
2023-01-30T03:42:00.023Z,0
2023-01-30T03:43:00.047Z,0
2023-01-30T03:44:00.099Z,0
2023-01-30T03:45:03.217Z,0
2023-01-30T03:46:00.353Z,0
2023-01-30T03:47:00.041Z,0
2023-01-30T03:48:00.025Z,0
2023-01-30T03:49:00.067Z,0
2023-01-30T03:50:00.108Z,0
2023-01-30T03:51:00.041Z,0
2023-01-30T03:52:00.081Z,0
2023-01-30T03:53:00.081Z,0
2023-01-30T03:54:00.105Z,0
2023-01-30T03:55:00.179Z,0
2023-01-30T03:56:03.000Z,0
2023-01-30T03:57:00.050Z,0
2023-01-30T03:58:00.039Z,0
2023-01-30T03:59:00.077Z,0
2023-01-30T04:00:00.181Z,0
2023-01-30T04:01:03.936Z,0
2023-01-30T04:02:00.039Z,0
2023-01-30T04:03:00.098Z,0
2023-01-30T04:04:00.114Z,0
2023-01-30T04:05:00.082Z,0
2023-01-30T04:06:00.104Z,0
2023-01-30T04:07:02.838Z,0
2023-01-30T04:08:00.226Z,0
2023-01-30T04:09:00.106Z,0
2023-01-30T04:10:00.146Z,0
2023-01-30T04:11:00.079Z,0
2023-01-30T04:12:02.955Z,0
2023-01-30T04:13:00.093Z,0
2023-01-30T04:14:00.118Z,0
2023-01-30T04:15:00.094Z,0
2023-01-30T04:16:00.346Z,0
2023-01-30T04:17:00.371Z,0
2023-01-30T04:18:00.136Z,0
2023-01-30T04:19:00.171Z,0
2023-01-30T04:20:00.109Z,0
2023-01-30T04:21:00.140Z,0
2023-01-30T04:22:00.131Z,0
2023-01-30T04:23:03.156Z,0
2023-01-30T04:24:00.121Z,0
2023-01-30T04:25:00.189Z,0
2023-01-30T04:26:00.097Z,0
2023-01-30T04:27:00.093Z,0
2023-01-30T04:28:00.103Z,0
2023-01-30T04:29:00.133Z,0
2023-01-30T04:30:00.113Z,0
2023-01-30T04:31:00.521Z,0
2023-01-30T04:32:00.176Z,0
2023-01-30T04:33:00.207Z,0
2023-01-30T04:34:00.100Z,0
2023-01-30T04:35:00.176Z,0
2023-01-30T04:36:00.156Z,0
2023-01-30T04:37:00.187Z,0
2023-01-30T04:38:00.112Z,0
2023-01-30T04:39:00.173Z,0
2023-01-30T04:40:00.137Z,0
2023-01-30T04:41:00.185Z,0
2023-01-30T04:42:00.129Z,0
2023-01-30T04:43:00.123Z,0
2023-01-30T04:44:00.180Z,0
2023-01-30T04:45:00.292Z,0
2023-01-30T04:46:00.204Z,0
2023-01-30T04:47:00.153Z,0
2023-01-30T04:48:00.513Z,0
2023-01-30T04:49:00.257Z,0
2023-01-30T04:50:02.930Z,0
2023-01-30T04:51:00.129Z,0
2023-01-30T04:52:00.201Z,0
2023-01-30T04:53:00.132Z,0
2023-01-30T04:54:00.236Z,0
2023-01-30T04:55:03.259Z,0
2023-01-30T04:56:00.143Z,0
2023-01-30T04:57:00.192Z,0
2023-01-30T04:58:00.175Z,0
2023-01-30T04:59:00.176Z,0
2023-01-30T05:00:00.182Z,0
2023-01-30T05:01:03.342Z,0
2023-01-30T05:02:00.604Z,0
2023-01-30T05:03:00.296Z,0
2023-01-30T05:04:00.191Z,0
2023-01-30T05:05:00.398Z,0
2023-01-30T05:06:04.212Z,0
2023-01-30T05:07:00.242Z,0
2023-01-30T05:08:00.174Z,0
2023-01-30T05:09:00.190Z,0
2023-01-30T05:10:00.162Z,0
2023-01-30T05:11:00.209Z,0
2023-01-30T05:12:03.072Z,0
2023-01-30T05:13:00.370Z,0
2023-01-30T05:14:00.195Z,0
2023-01-30T05:15:00.231Z,0
2023-01-30T05:16:00.172Z,0
2023-01-30T05:17:03.498Z,0
2023-01-30T05:18:00.198Z,0
2023-01-30T05:19:00.257Z,0
2023-01-30T05:20:00.362Z,0
2023-01-30T05:21:00.423Z,0
2023-01-30T05:22:00.193Z,0
2023-01-30T05:23:03.274Z,0
2023-01-30T05:24:00.217Z,0
2023-01-30T05:25:00.114Z,0
2023-01-30T05:26:00.212Z,0
2023-01-30T05:27:00.221Z,0
2023-01-30T05:28:03.219Z,0
2023-01-30T05:29:00.238Z,0
2023-01-30T05:30:00.194Z,0
2023-01-30T05:31:03.463Z,0
2023-01-30T05:32:00.327Z,0
2023-01-30T05:33:00.205Z,0
2023-01-30T05:34:03.314Z,0
2023-01-30T05:35:00.243Z,0
2023-01-30T05:36:00.309Z,0
2023-01-30T05:37:00.316Z,0
2023-01-30T05:38:01.809Z,0
2023-01-30T05:39:03.152Z,0
2023-01-30T05:40:00.431Z,0
2023-01-30T05:41:00.330Z,0
2023-01-30T05:42:00.213Z,0
2023-01-30T05:43:00.256Z,0
2023-01-30T05:44:00.263Z,0
2023-01-30T05:45:00.093Z,0
2023-01-30T05:46:00.238Z,0
2023-01-30T05:47:00.479Z,0
2023-01-30T05:48:06.281Z,0
2023-01-30T05:49:00.319Z,0
2023-01-30T05:50:03.079Z,0
2023-01-30T05:51:00.264Z,0
2023-01-30T05:52:00.233Z,0
2023-01-30T05:53:00.300Z,0
2023-01-30T05:54:00.431Z,0
2023-01-30T05:55:00.313Z,0
2023-01-30T05:56:03.390Z,0
2023-01-30T05:57:00.132Z,0
2023-01-30T05:58:00.261Z,0
2023-01-30T05:59:00.271Z,0
2023-01-30T06:00:00.323Z,0
2023-01-30T06:01:03.144Z,0
2023-01-30T06:02:00.476Z,0
2023-01-30T06:03:00.544Z,0
2023-01-30T06:04:00.572Z,0
2023-01-30T06:05:00.273Z,0
2023-01-30T06:06:00.240Z,0
2023-01-30T06:07:00.318Z,0
2023-01-30T06:08:00.341Z,0
2023-01-30T06:09:00.474Z,0
2023-01-30T06:10:00.384Z,0
2023-01-30T06:11:00.292Z,0
2023-01-30T06:12:03.292Z,0
2023-01-30T06:13:00.237Z,0
2023-01-30T06:14:00.303Z,0
2023-01-30T06:15:00.266Z,0
2023-01-30T06:16:00.651Z,0
2023-01-30T06:17:00.597Z,0
2023-01-30T06:18:00.362Z,0
2023-01-30T06:19:00.368Z,0
2023-01-30T06:20:00.267Z,0
2023-01-30T06:21:00.285Z,0
2023-01-30T06:22:00.308Z,0
2023-01-30T06:23:03.094Z,0
2023-01-30T06:24:00.361Z,0
2023-01-30T06:25:00.377Z,0
2023-01-30T06:26:01.645Z,0
2023-01-30T06:27:00.404Z,0
2023-01-30T06:28:03.125Z,0
2023-01-30T06:29:00.323Z,0
2023-01-30T06:30:01.339Z,0
2023-01-30T06:31:00.977Z,0
2023-01-30T06:32:00.281Z,0
2023-01-30T06:33:00.304Z,0
2023-01-30T06:34:03.703Z,0
2023-01-30T06:35:00.379Z,0
2023-01-30T06:36:00.476Z,0
2023-01-30T06:37:00.380Z,0
2023-01-30T06:38:00.376Z,0
2023-01-30T06:39:01.749Z,0
2023-01-30T06:40:00.382Z,0
2023-01-30T06:41:00.473Z,0
2023-01-30T06:42:00.393Z,4
2023-01-30T06:43:00.413Z,4
2023-01-30T06:44:00.460Z,4
2023-01-30T06:45:00.334Z,4
2023-01-30T06:46:00.712Z,4
2023-01-30T06:47:00.409Z,0
2023-01-30T06:48:00.518Z,0
2023-01-30T06:49:00.477Z,4
2023-01-30T06:50:03.447Z,4
2023-01-30T06:51:00.364Z,0
2023-01-30T06:52:00.426Z,0
2023-01-30T06:53:01.344Z,0
2023-01-30T06:54:00.392Z,4
2023-01-30T06:55:00.397Z,8
2023-01-30T06:56:00.371Z,4
2023-01-30T06:57:00.442Z,8
2023-01-30T06:58:00.348Z,8
2023-01-30T06:59:00.429Z,8
2023-01-30T07:00:00.355Z,12
2023-01-30T07:01:00.356Z,12
2023-01-30T07:02:00.572Z,12
2023-01-30T07:03:00.384Z,12
2023-01-30T07:04:00.563Z,16
2023-01-30T07:05:00.361Z,16
2023-01-30T07:06:00.403Z,20
2023-01-30T07:07:00.363Z,20
2023-01-30T07:08:00.375Z,20
2023-01-30T07:09:00.399Z,20
2023-01-30T07:10:14.190Z,24
2023-01-30T07:11:00.386Z,24
2023-01-30T07:12:00.418Z,28
2023-01-30T07:13:00.521Z,28
2023-01-30T07:14:00.430Z,32
2023-01-30T07:15:09.353Z,36
2023-01-30T07:16:00.505Z,36
2023-01-30T07:17:03.515Z,44
2023-01-30T07:18:00.395Z,48
2023-01-30T07:19:00.397Z,52
2023-01-30T07:20:00.424Z,44
2023-01-30T07:21:00.400Z,40
2023-01-30T07:22:05.477Z,44
2023-01-30T07:23:00.471Z,48
2023-01-30T07:24:00.464Z,52
2023-01-30T07:25:00.416Z,56
2023-01-30T07:26:00.445Z,56
2023-01-30T07:27:00.388Z,60
2023-01-30T07:28:00.638Z,72
2023-01-30T07:29:00.558Z,76
2023-01-30T07:30:00.364Z,76
2023-01-30T07:31:00.761Z,80
2023-01-30T07:32:00.760Z,84
2023-01-30T07:33:03.507Z,92
2023-01-30T07:34:03.405Z,100
2023-01-30T07:35:00.389Z,108
2023-01-30T07:36:00.420Z,120
2023-01-30T07:37:00.430Z,128
2023-01-30T07:38:00.392Z,148
2023-01-30T07:39:03.205Z,168
2023-01-30T07:40:00.403Z,164
2023-01-30T07:41:00.397Z,148
2023-01-30T07:42:05.781Z,148
2023-01-30T07:43:00.442Z,164
2023-01-30T07:44:03.865Z,184
2023-01-30T07:45:00.423Z,200
2023-01-30T07:46:00.443Z,208
2023-01-30T07:47:00.748Z,220
2023-01-30T07:48:00.423Z,240
2023-01-30T07:49:02.211Z,252
2023-01-30T07:50:03.514Z,280
2023-01-30T07:51:00.442Z,284
2023-01-30T07:52:00.410Z,288
2023-01-30T07:53:00.429Z,344
2023-01-30T07:54:00.446Z,956
2023-01-30T07:55:05.946Z,356
2023-01-30T07:56:00.407Z,388
2023-01-30T07:57:00.426Z,500
2023-01-30T07:58:00.497Z,192
2023-01-30T07:59:00.466Z,84
2023-01-30T08:00:00.576Z,76
2023-01-30T08:01:03.709Z,72
2023-01-30T08:02:00.476Z,72
2023-01-30T08:03:00.499Z,72
2023-01-30T08:04:00.461Z,72
2023-01-30T08:05:00.748Z,64
2023-01-30T08:06:03.332Z,60
2023-01-30T08:07:00.506Z,56
2023-01-30T08:08:00.478Z,48
2023-01-30T08:09:00.487Z,48
2023-01-30T08:10:00.489Z,48
2023-01-30T08:11:00.462Z,48
2023-01-30T08:12:03.486Z,48
2023-01-30T08:13:00.595Z,48
2023-01-30T08:14:00.529Z,48
2023-01-30T08:15:00.464Z,48
2023-01-30T08:16:00.601Z,48
2023-01-30T08:17:03.390Z,48
2023-01-30T08:18:00.713Z,48
2023-01-30T08:19:00.552Z,48
2023-01-30T08:20:00.519Z,52
2023-01-30T08:21:00.452Z,60
2023-01-30T08:22:00.496Z,56
2023-01-30T08:23:03.497Z,56
2023-01-30T08:24:02.572Z,48
2023-01-30T08:25:00.481Z,48
2023-01-30T08:26:00.576Z,52
2023-01-30T08:27:00.496Z,56
2023-01-30T08:28:03.762Z,60
2023-01-30T08:29:01.554Z,56
2023-01-30T08:30:00.504Z,56
2023-01-30T08:31:01.070Z,56
2023-01-30T08:32:00.612Z,60
2023-01-30T08:33:00.467Z,60
2023-01-30T08:34:00.466Z,64
2023-01-30T08:35:00.521Z,68
2023-01-30T08:36:00.523Z,68
2023-01-30T08:37:00.512Z,72
2023-01-30T08:38:00.498Z,76
2023-01-30T08:39:00.725Z,84
2023-01-30T08:40:00.511Z,84
2023-01-30T08:41:00.503Z,88
2023-01-30T08:42:00.529Z,92
2023-01-30T08:43:00.510Z,96
2023-01-30T08:44:00.522Z,100
2023-01-30T08:45:00.609Z,104
2023-01-30T08:46:00.563Z,108
2023-01-30T08:47:00.681Z,116
2023-01-30T08:48:00.645Z,116
2023-01-30T08:49:00.495Z,116
2023-01-30T08:50:03.664Z,116
2023-01-30T08:51:00.527Z,116
2023-01-30T08:52:00.635Z,120
2023-01-30T08:53:00.490Z,108
2023-01-30T08:54:00.539Z,108
2023-01-30T08:55:00.812Z,112
2023-01-30T08:56:00.615Z,116
2023-01-30T08:57:00.545Z,120
2023-01-30T08:58:00.726Z,120
2023-01-30T08:59:00.576Z,120
2023-01-30T09:00:00.591Z,112
2023-01-30T09:01:04.005Z,96
2023-01-30T09:02:00.528Z,92
2023-01-30T09:03:00.565Z,84
2023-01-30T09:04:00.617Z,80
2023-01-30T09:05:00.691Z,80
2023-01-30T09:06:03.688Z,76
2023-01-30T09:07:00.564Z,72
2023-01-30T09:08:00.554Z,72
2023-01-30T09:09:00.788Z,68
2023-01-30T09:10:00.666Z,60
2023-01-30T09:11:00.575Z,60
2023-01-30T09:12:00.593Z,64
2023-01-30T09:13:00.575Z,60
2023-01-30T09:14:00.546Z,60
2023-01-30T09:15:00.599Z,64
2023-01-30T09:16:00.567Z,64
2023-01-30T09:17:03.783Z,68
2023-01-30T09:18:00.580Z,68
2023-01-30T09:19:00.614Z,68
2023-01-30T09:20:00.662Z,72
2023-01-30T09:21:00.800Z,76
2023-01-30T09:22:00.703Z,80
2023-01-30T09:23:00.576Z,80
2023-01-30T09:24:00.596Z,84
2023-01-30T09:25:00.825Z,88
2023-01-30T09:26:00.621Z,100
2023-01-30T09:27:00.577Z,100
2023-01-30T09:28:00.690Z,96
2023-01-30T09:29:00.637Z,104
2023-01-30T09:30:00.646Z,112
2023-01-30T09:31:01.183Z,116
2023-01-30T09:32:00.645Z,116
2023-01-30T09:33:00.597Z,108
2023-01-30T09:34:00.682Z,124
2023-01-30T09:35:00.647Z,120
2023-01-30T09:36:00.734Z,116
2023-01-30T09:37:01.044Z,108
2023-01-30T09:38:00.644Z,104
2023-01-30T09:39:00.593Z,116
2023-01-30T09:40:00.674Z,116
2023-01-30T09:41:00.578Z,116
2023-01-30T09:42:00.619Z,116
2023-01-30T09:43:00.639Z,116
2023-01-30T09:44:03.655Z,116
2023-01-30T09:45:00.623Z,108
2023-01-30T09:46:00.781Z,116
2023-01-30T09:47:00.647Z,116
2023-01-30T09:48:06.546Z,104
2023-01-30T09:49:03.675Z,116
2023-01-30T09:50:01.582Z,112
2023-01-30T09:51:01.086Z,124
2023-01-30T09:52:00.696Z,132
2023-01-30T09:53:00.646Z,132
2023-01-30T09:54:03.066Z,120
2023-01-30T09:55:03.522Z,128
2023-01-30T09:56:00.601Z,120
2023-01-30T09:57:00.639Z,120
2023-01-30T09:58:00.656Z,124
2023-01-30T09:59:00.670Z,124
2023-01-30T10:00:03.687Z,136
2023-01-30T10:01:00.837Z,136
2023-01-30T10:02:00.630Z,160
2023-01-30T10:03:00.672Z,148
2023-01-30T10:04:00.666Z,136
2023-01-30T10:05:08.835Z,124
2023-01-30T10:06:03.667Z,124
2023-01-30T10:07:00.980Z,116
2023-01-30T10:08:01.070Z,116
2023-01-30T10:09:00.737Z,112
2023-01-30T10:10:00.642Z,116
2023-01-30T10:11:16.095Z,116
2023-01-30T10:12:00.719Z,128
2023-01-30T10:13:01.681Z,132
2023-01-30T10:14:00.673Z,116
2023-01-30T10:15:00.711Z,120
2023-01-30T10:16:00.903Z,120
2023-01-30T10:17:03.540Z,112
2023-01-30T10:18:00.764Z,124
2023-01-30T10:19:00.780Z,124
2023-01-30T10:20:00.768Z,116
2023-01-30T10:21:04.674Z,112
2023-01-30T10:22:03.728Z,116
2023-01-30T10:23:00.646Z,112
2023-01-30T10:24:00.813Z,104
2023-01-30T10:25:00.729Z,112
2023-01-30T10:26:01.046Z,108
2023-01-30T10:27:03.003Z,100
2023-01-30T10:28:09.534Z,124
2023-01-30T10:29:16.196Z,124
2023-01-30T10:30:00.674Z,120
2023-01-30T10:31:01.225Z,120
2023-01-30T10:32:00.984Z,104
2023-01-30T10:33:03.719Z,112
2023-01-30T10:34:00.738Z,124
2023-01-30T10:35:00.751Z,120
2023-01-30T10:36:00.695Z,108
2023-01-30T10:37:00.709Z,92
2023-01-30T10:38:00.715Z,88
2023-01-30T10:39:03.827Z,96
2023-01-30T10:40:02.637Z,96
2023-01-30T10:41:00.719Z,84
2023-01-30T10:42:00.734Z,84
2023-01-30T10:43:00.715Z,84
2023-01-30T10:44:03.582Z,88
2023-01-30T10:45:00.860Z,88
2023-01-30T10:46:00.663Z,84
2023-01-30T10:47:00.979Z,80
2023-01-30T10:48:00.977Z,76
2023-01-30T10:49:01.845Z,72
2023-01-30T10:50:00.889Z,72
2023-01-30T10:51:00.730Z,76
2023-01-30T10:52:00.707Z,80
2023-01-30T10:53:00.994Z,76
2023-01-30T10:54:00.745Z,76
2023-01-30T10:55:03.908Z,80
2023-01-30T10:56:00.786Z,76
2023-01-30T10:57:00.746Z,80
2023-01-30T10:58:00.724Z,84
2023-01-30T10:59:00.742Z,88
2023-01-30T11:00:00.726Z,88
2023-01-30T11:01:00.734Z,96
2023-01-30T11:02:01.195Z,92
2023-01-30T11:03:01.033Z,92
2023-01-30T11:04:00.762Z,92
2023-01-30T11:05:00.793Z,88
2023-01-30T11:06:03.585Z,84
2023-01-30T11:07:00.785Z,88
2023-01-30T11:08:00.781Z,80
2023-01-30T11:09:00.980Z,80
2023-01-30T11:10:00.801Z,80
2023-01-30T11:11:00.793Z,72
2023-01-30T11:12:00.898Z,68
2023-01-30T11:13:00.775Z,72
2023-01-30T11:14:00.755Z,72
2023-01-30T11:15:00.882Z,68
2023-01-30T11:16:00.999Z,64
2023-01-30T11:17:03.659Z,68
2023-01-30T11:19:19.978Z,60
2023-01-30T11:19:32.924Z,64
2023-01-30T11:20:30.124Z,64
2023-01-30T11:21:47.636Z,76
2023-01-30T11:22:30.122Z,72
2023-01-30T11:23:33.153Z,60
2023-01-30T11:24:33.010Z,56
2023-01-30T11:25:30.136Z,56
2023-01-30T11:26:50.957Z,60
2023-01-30T11:27:30.290Z,60
2023-01-30T11:28:30.139Z,60
2023-01-30T11:29:30.156Z,56
2023-01-30T11:30:33.190Z,60
2023-01-30T11:31:50.404Z,64
2023-01-30T11:32:30.501Z,60
2023-01-30T11:33:30.149Z,64
2023-01-30T11:34:30.172Z,68
2023-01-30T11:35:33.177Z,64
2023-01-30T11:36:30.155Z,56
2023-01-30T11:37:30.153Z,56
2023-01-30T11:38:30.313Z,56
2023-01-30T11:39:30.248Z,60
2023-01-30T11:40:30.173Z,60
2023-01-30T11:41:33.198Z,52
2023-01-30T11:42:30.191Z,52
2023-01-30T11:43:30.280Z,52
2023-01-30T11:44:30.190Z,52
2023-01-30T11:45:30.501Z,56
2023-01-30T11:46:33.034Z,56
2023-01-30T11:47:33.913Z,64
2023-01-30T11:50:03.292Z,52
2023-01-30T11:50:49.271Z,48
2023-01-30T11:51:31.581Z,48
2023-01-30T11:52:34.312Z,56
2023-01-30T11:53:31.729Z,60
2023-01-30T11:54:31.534Z,60
2023-01-30T11:55:31.532Z,52
2023-01-30T11:56:31.571Z,44
2023-01-30T11:57:34.589Z,44
2023-01-30T11:58:31.546Z,48
2023-01-30T11:59:31.693Z,48
2023-01-30T12:00:31.514Z,52
2023-01-30T12:01:31.592Z,52
2023-01-30T12:02:31.790Z,72
2023-01-30T12:03:34.977Z,84
2023-01-30T12:04:31.561Z,76
2023-01-30T12:05:31.665Z,64
2023-01-30T12:06:31.518Z,64
2023-01-30T12:07:31.567Z,72
2023-01-30T12:08:47.666Z,92
2023-01-30T12:09:31.540Z,100
2023-01-30T12:10:31.557Z,88
2023-01-30T12:11:31.627Z,64
2023-01-30T12:12:31.570Z,56
2023-01-30T12:13:31.523Z,60
2023-01-30T12:14:31.507Z,56
2023-01-30T12:15:31.754Z,56
2023-01-30T12:16:31.865Z,60
2023-01-30T12:17:31.593Z,56
2023-01-30T12:18:31.570Z,64
2023-01-30T12:19:34.588Z,80
2023-01-30T12:20:31.544Z,112
2023-01-30T12:21:31.552Z,156
2023-01-30T12:22:31.569Z,188
2023-01-30T12:23:31.536Z,164
2023-01-30T12:24:31.549Z,152
2023-01-30T12:25:31.576Z,124
2023-01-30T12:26:31.814Z,104
2023-01-30T12:27:31.634Z,88
2023-01-30T12:28:31.612Z,80
2023-01-30T12:29:34.371Z,64
2023-01-30T12:30:34.768Z,52
2023-01-30T12:31:31.640Z,52
2023-01-30T12:32:31.614Z,48
2023-01-30T12:33:31.583Z,52
2023-01-30T12:34:34.489Z,48
2023-01-30T12:35:31.584Z,52
2023-01-30T12:36:31.600Z,56
2023-01-30T12:37:31.593Z,48
2023-01-30T12:38:31.592Z,44
2023-01-30T12:39:31.601Z,48
2023-01-30T12:40:31.559Z,52
2023-01-30T12:41:34.698Z,56
2023-01-30T12:42:32.848Z,56
2023-01-30T12:43:31.647Z,72
2023-01-30T12:44:31.638Z,100
2023-01-30T12:45:31.622Z,128
2023-01-30T12:46:31.923Z,168
2023-01-30T12:47:32.787Z,188
2023-01-30T12:48:32.445Z,208
2023-01-30T12:49:31.609Z,236
2023-01-30T12:50:31.618Z,148
2023-01-30T12:51:31.578Z,140
2023-01-30T12:52:31.631Z,116
2023-01-30T12:53:31.623Z,100
2023-01-30T12:54:31.619Z,108
2023-01-30T12:55:31.675Z,116
2023-01-30T12:56:31.635Z,112
2023-01-30T12:57:32.012Z,100
2023-01-30T12:58:31.649Z,104
2023-01-30T12:59:31.647Z,104
2023-01-30T13:00:31.648Z,104
2023-01-30T13:01:32.111Z,112
2023-01-30T13:02:36.914Z,136
2023-01-30T13:03:31.723Z,168
2023-01-30T13:04:31.599Z,216
2023-01-30T13:05:31.653Z,244
2023-01-30T13:06:31.653Z,248
2023-01-30T13:07:31.651Z,236
2023-01-30T13:08:31.612Z,216
2023-01-30T13:09:31.721Z,220
2023-01-30T13:10:31.677Z,220
2023-01-30T13:11:31.686Z,212
2023-01-30T13:12:31.654Z,196
2023-01-30T13:13:31.656Z,200
2023-01-30T13:14:31.665Z,196
2023-01-30T13:15:31.827Z,200
2023-01-30T13:16:32.002Z,176
2023-01-30T13:17:31.660Z,156
2023-01-30T13:18:31.692Z,144
2023-01-30T13:19:45.236Z,124
2023-01-30T13:20:31.645Z,104
2023-01-30T13:21:31.693Z,116
2023-01-30T13:22:31.669Z,128
2023-01-30T13:23:31.648Z,120
2023-01-30T13:24:34.434Z,104
2023-01-30T13:25:31.666Z,108
2023-01-30T13:26:32.096Z,92
2023-01-30T13:27:31.751Z,92
2023-01-30T13:28:32.984Z,112
2023-01-30T13:29:34.709Z,104
2023-01-30T13:30:31.713Z,80
2023-01-30T13:31:32.366Z,60
2023-01-30T13:32:31.949Z,56
2023-01-30T13:33:31.710Z,64
2023-01-30T13:34:31.737Z,76
2023-01-30T13:35:35.766Z,116
2023-01-30T13:36:31.846Z,132
2023-01-30T13:37:31.730Z,108
2023-01-30T13:38:31.715Z,92
2023-01-30T13:39:33.035Z,84
2023-01-30T13:40:35.123Z,84
2023-01-30T13:41:32.465Z,80
2023-01-30T13:42:33.130Z,84
2023-01-30T13:43:31.964Z,76
2023-01-30T13:44:31.690Z,92
2023-01-30T13:45:31.818Z,120
2023-01-30T13:46:35.147Z,136
2023-01-30T13:47:31.830Z,136
2023-01-30T13:48:31.706Z,128
2023-01-30T13:49:31.763Z,104
2023-01-30T13:50:31.769Z,112
2023-01-30T13:51:34.876Z,108
2023-01-30T13:52:31.856Z,96
2023-01-30T13:53:31.685Z,104
2023-01-30T13:54:31.797Z,120
2023-01-30T13:55:31.977Z,132
2023-01-30T13:56:48.123Z,124
2023-01-30T13:57:31.980Z,112
2023-01-30T13:58:31.748Z,96
2023-01-30T13:59:31.756Z,100
2023-01-30T14:00:32.072Z,132
2023-01-30T14:01:31.743Z,140
2023-01-30T14:02:34.845Z,88
2023-01-30T14:03:31.821Z,64
2023-01-30T14:04:31.729Z,60
2023-01-30T14:05:52.005Z,80
2023-01-30T14:06:31.728Z,88
2023-01-30T14:07:31.792Z,88
2023-01-30T14:08:34.726Z,92
2023-01-30T14:09:31.756Z,152
2023-01-30T14:10:31.753Z,132
2023-01-30T14:11:33.952Z,128
2023-01-30T14:12:31.711Z,124
2023-01-30T14:13:36.835Z,124
2023-01-30T14:14:31.787Z,140
2023-01-30T14:15:31.837Z,144
2023-01-30T14:16:31.978Z,152
2023-01-30T14:17:31.760Z,260
2023-01-30T14:18:31.833Z,196
2023-01-30T14:19:34.600Z,228
2023-01-30T14:20:31.790Z,188
2023-01-30T14:21:31.976Z,144
2023-01-30T14:22:31.795Z,136
2023-01-30T14:23:31.796Z,140
2023-01-30T14:24:37.277Z,140
2023-01-30T14:25:31.802Z,204
2023-01-30T14:26:32.020Z,160